createdAt,value
2022-10-29T00:01:36.374Z,21.66
2022-10-29T00:04:03.814Z,21.32
2022-10-29T00:06:30.924Z,21.19
2022-10-29T00:08:58.090Z,21.29
2022-10-29T00:11:25.584Z,21.22
2022-10-29T00:13:53.717Z,21.29
2022-10-29T00:16:22.090Z,20.77
2022-10-29T00:18:49.470Z,21.41
2022-10-29T00:21:17.689Z,21.59
2022-10-29T00:23:44.784Z,21.82
2022-10-29T00:26:12.307Z,21.52
2022-10-29T00:28:39.478Z,21.25
2022-10-29T00:31:07.772Z,21.39
2022-10-29T00:33:35.169Z,21.43
2022-10-29T00:36:03.394Z,21.07
2022-10-29T00:38:30.935Z,20.84
2022-10-29T00:40:58.482Z,20.43
2022-10-29T00:43:25.946Z,21.14
2022-10-29T00:45:53.791Z,21.14
2022-10-29T00:48:21.332Z,21.32
2022-10-29T00:50:48.854Z,21.45
2022-10-29T00:53:16.824Z,20.46
2022-10-29T00:55:44.278Z,20.74
2022-10-29T00:58:11.480Z,21.13
2022-10-29T01:00:38.927Z,21.06
2022-10-29T01:03:06.669Z,20.42
2022-10-29T01:05:33.869Z,20.48
2022-10-29T01:08:01.173Z,20.74
2022-10-29T01:10:39.170Z,19.64
2022-10-29T01:13:14.715Z,20.38
2022-10-29T01:16:17.820Z,20.67
2022-10-29T01:18:49.998Z,20.44
2022-10-29T01:21:17.342Z,20.06
2022-10-29T01:23:53.281Z,20.70
2022-10-29T01:26:39.514Z,20.33
2022-10-29T01:29:10.907Z,20.56
2022-10-29T01:31:39.788Z,20.61
2022-10-29T01:34:11.721Z,21.14
2022-10-29T01:36:44.315Z,20.42
2022-10-29T01:39:26.798Z,20.39
2022-10-29T01:41:57.259Z,20.49
2022-10-29T01:44:35.408Z,20.29
2022-10-29T01:47:03.262Z,20.80
2022-10-29T01:49:40.554Z,20.56
2022-10-29T01:52:08.778Z,19.65
2022-10-29T01:54:39.484Z,19.20
2022-10-29T01:57:23.363Z,19.67
2022-10-29T01:59:56.120Z,20.11
2022-10-29T02:02:47.338Z,18.70
2022-10-29T02:05:22.141Z,20.26
2022-10-29T02:08:08.404Z,20.12
2022-10-29T02:10:38.350Z,20.09
2022-10-29T02:13:05.542Z,20.14
2022-10-29T02:15:36.469Z,20.29
2022-10-29T02:18:04.899Z,19.78
2022-10-29T02:20:32.018Z,20.14
2022-10-29T02:22:59.147Z,19.87
2022-10-29T02:25:26.782Z,20.14
2022-10-29T02:27:54.153Z,20.39
2022-10-29T02:30:21.493Z,20.64
2022-10-29T02:32:48.908Z,20.36
2022-10-29T02:35:16.110Z,20.25
2022-10-29T02:37:43.238Z,20.55
2022-10-29T02:40:10.874Z,20.86
2022-10-29T02:42:38.054Z,21.11
2022-10-29T02:45:05.485Z,21.18
2022-10-29T02:47:33.005Z,21.12
2022-10-29T02:50:00.158Z,20.94
2022-10-29T02:52:27.253Z,21.19
2022-10-29T02:54:54.696Z,20.92
2022-10-29T02:57:21.802Z,19.32
2022-10-29T02:59:48.914Z,20.37
2022-10-29T03:02:16.383Z,20.53
2022-10-29T03:04:44.771Z,20.43
2022-10-29T03:07:11.910Z,20.16
2022-10-29T03:09:39.397Z,20.38
2022-10-29T03:12:06.703Z,20.46
2022-10-29T03:14:33.832Z,20.54
2022-10-29T03:17:01.296Z,20.68
2022-10-29T03:19:28.415Z,20.70
2022-10-29T03:21:55.559Z,20.96
2022-10-29T03:24:23.012Z,20.52
2022-10-29T03:26:50.164Z,19.41
2022-10-29T03:29:17.310Z,19.40
2022-10-29T03:31:44.742Z,20.28
2022-10-29T03:34:11.888Z,20.61
2022-10-29T03:36:39.066Z,20.76
2022-10-29T03:39:06.558Z,20.74
2022-10-29T03:41:33.676Z,20.47
2022-10-29T03:44:00.811Z,19.54
2022-10-29T03:46:28.220Z,19.15
2022-10-29T03:48:55.360Z,20.05
2022-10-29T03:51:22.503Z,19.13
2022-10-29T03:53:49.911Z,19.40
2022-10-29T03:56:17.044Z,19.78
2022-10-29T03:58:44.218Z,18.92
2022-10-29T04:01:11.720Z,18.99
2022-10-29T04:03:41.391Z,19.82
2022-10-29T04:06:09.636Z,19.30
2022-10-29T04:08:36.892Z,19.93
2022-10-29T04:11:04.332Z,20.00
2022-10-29T04:13:31.677Z,19.92
2022-10-29T04:15:58.831Z,19.75
2022-10-29T04:18:26.268Z,19.95
2022-10-29T04:29:15.945Z,20.54
2022-10-29T04:31:43.093Z,20.67
2022-10-29T04:34:10.279Z,20.68
2022-10-29T04:36:37.719Z,20.61
2022-10-29T04:39:04.869Z,20.52
2022-10-29T04:41:32.128Z,20.62
2022-10-29T04:43:59.571Z,20.80
2022-10-29T04:46:26.722Z,20.78
2022-10-29T04:48:53.981Z,20.61
2022-10-29T04:51:22.162Z,20.58
2022-10-29T04:53:49.441Z,19.90
2022-10-29T04:56:16.787Z,20.23
2022-10-29T04:58:44.223Z,20.36
2022-10-29T05:01:11.613Z,20.56
2022-10-29T05:03:38.926Z,20.54
2022-10-29T05:06:06.809Z,20.29
2022-10-29T05:08:34.336Z,20.71
2022-10-29T05:11:03.759Z,19.71
2022-10-29T05:13:31.329Z,19.92
2022-10-29T05:15:58.511Z,20.08
2022-10-29T05:18:25.732Z,20.47
2022-10-29T05:20:56.420Z,20.31
2022-10-29T05:23:23.616Z,20.30
2022-10-29T05:25:52.378Z,20.53
2022-10-29T05:28:20.851Z,20.46
2022-10-29T05:30:48.743Z,20.74
2022-10-29T05:33:16.792Z,20.68
2022-10-29T05:35:44.299Z,20.64
2022-10-29T05:38:12.054Z,21.08
2022-10-29T05:40:39.501Z,19.92
2022-10-29T05:43:06.930Z,20.58
2022-10-29T05:45:34.083Z,20.75
2022-10-29T05:48:02.198Z,20.73
2022-10-29T05:50:30.041Z,20.87
2022-10-29T05:53:01.004Z,20.12
2022-10-29T05:55:28.456Z,20.74
2022-10-29T05:57:59.563Z,19.77
2022-10-29T06:00:27.500Z,20.16
2022-10-29T06:02:55.686Z,19.72
2022-10-29T06:05:23.070Z,20.16
2022-10-29T06:07:54.074Z,20.42
2022-10-29T06:10:21.835Z,20.60
2022-10-29T06:12:49.334Z,19.39
2022-10-29T06:15:16.708Z,18.61
2022-10-29T06:17:44.295Z,19.15
2022-10-29T06:20:12.034Z,19.75
2022-10-29T06:22:39.161Z,19.57
2022-10-29T06:25:06.972Z,18.97
2022-10-29T06:27:34.087Z,19.19
2022-10-29T06:30:01.258Z,19.20
2022-10-29T06:32:28.653Z,19.74
2022-10-29T06:34:55.863Z,19.60
2022-10-29T06:37:23.009Z,19.79
2022-10-29T06:39:50.468Z,19.87
2022-10-29T06:42:17.593Z,19.74
2022-10-29T06:44:44.737Z,20.07
2022-10-29T06:47:12.147Z,19.34
2022-10-29T06:49:39.267Z,19.66
2022-10-29T06:52:06.398Z,20.04
2022-10-29T06:54:33.795Z,19.98
2022-10-29T06:57:00.907Z,19.88
2022-10-29T06:59:28.039Z,19.31
2022-10-29T07:01:55.525Z,17.77
2022-10-29T07:04:22.712Z,18.83
2022-10-29T07:06:49.847Z,18.24
2022-10-29T07:09:17.275Z,19.04
2022-10-29T07:11:44.452Z,18.91
2022-10-29T07:14:11.562Z,18.62
2022-10-29T07:16:38.978Z,18.84
2022-10-29T07:19:06.109Z,19.35
2022-10-29T07:21:34.945Z,19.39
2022-10-29T07:24:02.348Z,18.94
2022-10-29T07:26:29.452Z,19.59
2022-10-29T07:28:59.546Z,19.77
2022-10-29T07:31:26.980Z,19.02
2022-10-29T07:33:54.127Z,19.65
2022-10-29T07:36:21.243Z,18.77
2022-10-29T07:38:48.640Z,19.24
2022-10-29T07:41:15.968Z,19.67
2022-10-29T07:43:43.100Z,19.84
2022-10-29T07:46:10.485Z,19.65
2022-10-29T07:48:37.616Z,18.55
2022-10-29T07:51:04.806Z,18.71
2022-10-29T07:53:32.735Z,19.17
2022-10-29T07:55:59.867Z,19.30
2022-10-29T07:58:27.055Z,19.28
2022-10-29T08:00:54.583Z,18.92
2022-10-29T08:03:22.005Z,18.41
2022-10-29T08:05:56.198Z,18.01
2022-10-29T08:08:24.597Z,18.69
2022-10-29T08:10:51.735Z,19.24
2022-10-29T08:13:18.871Z,19.69
2022-10-29T08:15:46.619Z,19.47
2022-10-29T08:18:17.048Z,19.14
2022-10-29T08:20:44.456Z,18.61
2022-10-29T08:23:12.193Z,18.65
2022-10-29T08:25:42.647Z,18.19
2022-10-29T08:28:10.641Z,19.28
2022-10-29T08:30:38.093Z,18.20
2022-10-29T08:33:05.205Z,18.50
2022-10-29T08:35:32.732Z,19.27
2022-10-29T08:38:00.177Z,18.50
2022-10-29T08:40:42.919Z,18.86
2022-10-29T08:43:32.677Z,19.12
2022-10-29T08:45:59.817Z,19.62
2022-10-29T08:48:40.750Z,19.75
2022-10-29T08:51:10.453Z,20.09
2022-10-29T08:53:42.244Z,19.38
2022-10-29T08:56:11.818Z,19.61
2022-10-29T08:58:47.701Z,19.78
2022-10-29T09:01:15.024Z,20.03
2022-10-29T09:03:42.487Z,19.32
2022-10-29T09:06:10.617Z,18.40
2022-10-29T09:08:38.242Z,19.40
2022-10-29T09:11:17.634Z,17.62
2022-10-29T09:14:02.910Z,19.13
2022-10-29T09:16:44.213Z,18.00
2022-10-29T09:19:24.200Z,18.77
2022-10-29T09:22:14.109Z,18.55
2022-10-29T09:25:04.549Z,18.61
2022-10-29T09:27:50.803Z,18.70
2022-10-29T09:30:18.951Z,18.89
2022-10-29T09:33:07.284Z,19.31
2022-10-29T09:35:44.267Z,18.65
2022-10-29T09:38:14.207Z,16.91
2022-10-29T09:40:42.177Z,18.81
2022-10-29T09:43:35.657Z,17.13
2022-10-29T09:46:08.942Z,18.36
2022-10-29T09:48:39.038Z,18.30
2022-10-29T09:51:06.499Z,18.86
2022-10-29T09:53:33.643Z,18.89
2022-10-29T09:56:00.840Z,18.65
2022-10-29T09:58:28.373Z,18.10
2022-10-29T10:00:57.061Z,18.12
2022-10-29T10:03:24.387Z,18.22
2022-10-29T10:06:08.254Z,18.93
2022-10-29T10:08:36.051Z,18.81
2022-10-29T10:11:04.925Z,18.70
2022-10-29T10:13:33.022Z,19.00
2022-10-29T10:16:01.201Z,18.89
2022-10-29T10:18:31.456Z,19.23
2022-10-29T10:21:14.957Z,19.41
2022-10-29T10:23:46.514Z,19.67
2022-10-29T10:26:25.882Z,20.60
2022-10-29T10:29:07.203Z,19.96
2022-10-29T10:31:34.399Z,20.34
2022-10-29T10:34:07.870Z,20.58
2022-10-29T10:36:36.203Z,20.17
2022-10-29T10:39:03.607Z,20.45
2022-10-29T10:41:31.168Z,18.39
2022-10-29T10:44:00.472Z,19.19
2022-10-29T10:46:30.610Z,18.89
2022-10-29T10:49:02.205Z,18.91
2022-10-29T10:51:30.463Z,19.08
2022-10-29T10:53:58.493Z,19.25
2022-10-29T10:56:25.698Z,19.63
2022-10-29T10:58:53.130Z,19.22
2022-10-29T11:01:22.815Z,18.95
2022-10-29T11:03:51.797Z,19.23
2022-10-29T11:06:21.079Z,19.29
2022-10-29T11:08:51.284Z,19.87
2022-10-29T11:11:23.332Z,19.85
2022-10-29T11:13:50.719Z,20.06
2022-10-29T11:16:21.731Z,19.84
2022-10-29T11:18:51.789Z,20.23
2022-10-29T11:21:26.441Z,20.37
2022-10-29T11:24:05.170Z,20.49
2022-10-29T11:26:35.915Z,20.01
2022-10-29T11:29:06.074Z,19.39
2022-10-29T11:31:41.046Z,19.36
2022-10-29T11:34:14.521Z,19.80
2022-10-29T11:36:43.309Z,19.25
2022-10-29T11:39:13.437Z,19.30
2022-10-29T11:41:40.692Z,19.84
2022-10-29T11:44:11.749Z,20.64
2022-10-29T11:46:39.045Z,19.93
2022-10-29T11:49:24.934Z,19.44
2022-10-29T11:51:59.481Z,19.86
2022-10-29T11:54:48.498Z,20.02
2022-10-29T11:57:16.791Z,20.22
2022-10-29T11:59:43.875Z,20.41
2022-10-29T12:02:24.372Z,20.57
2022-10-29T12:04:58.903Z,20.57
2022-10-29T12:07:41.289Z,21.01
2022-10-29T12:10:12.640Z,20.78
2022-10-29T12:12:46.503Z,20.56
2022-10-29T12:15:20.205Z,20.71
2022-10-29T12:17:56.618Z,19.66
2022-10-29T12:20:33.126Z,19.67
2022-10-29T12:23:11.987Z,20.17
2022-10-29T12:25:50.971Z,20.30
2022-10-29T12:28:21.138Z,20.16
2022-10-29T12:30:54.781Z,20.66
2022-10-29T12:33:26.582Z,21.13
2022-10-29T12:36:06.404Z,20.49
2022-10-29T12:38:40.964Z,20.53
2022-10-29T12:41:10.171Z,19.77
2022-10-29T12:43:38.387Z,20.40
2022-10-29T12:46:23.743Z,20.54
2022-10-29T12:49:06.270Z,20.36
2022-10-29T12:51:50.575Z,20.04
2022-10-29T12:54:27.168Z,19.88
2022-10-29T12:56:54.356Z,19.70
2022-10-29T12:59:24.731Z,19.47
2022-10-29T13:04:42.276Z,20.08
2022-10-29T13:07:18.565Z,19.57
2022-10-29T13:09:48.379Z,19.96
2022-10-29T13:12:35.706Z,19.83
2022-10-29T13:15:04.117Z,19.88
2022-10-29T13:17:32.292Z,20.18
2022-10-29T13:20:00.255Z,20.64
2022-10-29T13:22:35.461Z,20.18
2022-10-29T13:25:21.620Z,20.27
2022-10-29T13:27:49.008Z,20.57
2022-10-29T13:30:16.102Z,20.40
2022-10-29T13:32:43.219Z,20.61
2022-10-29T13:35:16.485Z,20.85
2022-10-29T13:37:46.721Z,20.94
2022-10-29T13:40:23.456Z,20.97
2022-10-29T13:42:56.567Z,20.21
2022-10-29T13:45:24.187Z,20.40
2022-10-29T13:47:51.306Z,20.47
2022-10-29T13:50:18.762Z,20.19
2022-10-29T13:52:46.569Z,20.57
2022-10-29T13:55:16.818Z,20.17
2022-10-29T13:57:47.103Z,20.12
2022-10-29T14:00:19.279Z,19.86
2022-10-29T14:03:06.428Z,19.53
2022-10-29T14:05:35.077Z,19.96
2022-10-29T14:08:11.510Z,19.48
2022-10-29T14:10:41.476Z,20.12
2022-10-29T14:13:08.910Z,20.49
2022-10-29T14:15:39.131Z,20.58
2022-10-29T14:18:21.843Z,20.87
2022-10-29T14:20:55.914Z,20.82
2022-10-29T14:23:23.123Z,20.78
2022-10-29T14:25:51.365Z,20.76
2022-10-29T14:28:19.911Z,21.23
2022-10-29T14:30:47.584Z,21.31
2022-10-29T14:33:24.190Z,21.21
2022-10-29T14:35:51.617Z,20.62
2022-10-29T14:38:19.248Z,21.32
2022-10-29T14:40:46.408Z,21.23
2022-10-29T14:43:17.976Z,21.25
2022-10-29T14:45:45.406Z,20.95
2022-10-29T14:48:16.100Z,21.23
2022-10-29T14:50:46.958Z,21.48
2022-10-29T14:53:26.514Z,21.47
2022-10-29T14:55:53.651Z,21.27
2022-10-29T14:58:22.415Z,21.30
2022-10-29T15:00:52.146Z,21.06
2022-10-29T15:03:20.592Z,21.35
2022-10-29T15:05:48.280Z,21.18
2022-10-29T15:08:16.059Z,21.30
2022-10-29T15:10:50.455Z,21.97
2022-10-29T15:13:27.013Z,21.64
2022-10-29T15:16:06.746Z,21.57
2022-10-29T15:18:34.192Z,21.41
2022-10-29T15:21:01.448Z,21.05
2022-10-29T15:23:35.601Z,21.20
2022-10-29T15:26:23.423Z,21.49
2022-10-29T15:28:51.521Z,21.27
2022-10-29T15:31:24.358Z,21.22
2022-10-29T15:33:52.249Z,21.19
2022-10-29T15:36:19.659Z,20.75
2022-10-29T15:38:51.994Z,20.86
2022-10-29T15:41:20.085Z,20.68
2022-10-29T15:43:52.001Z,21.07
2022-10-29T15:46:23.257Z,21.33
2022-10-29T15:48:50.400Z,21.47
2022-10-29T15:51:17.658Z,21.34
2022-10-29T15:53:45.089Z,21.10
2022-10-29T15:56:12.668Z,21.48
2022-10-29T15:58:39.861Z,21.77
2022-10-29T16:01:07.728Z,21.92
2022-10-29T16:03:39.206Z,21.85
2022-10-29T16:06:06.942Z,21.37
2022-10-29T16:08:37.288Z,21.52
2022-10-29T16:11:07.856Z,21.77
2022-10-29T16:13:35.300Z,21.76
2022-10-29T16:16:02.429Z,21.66
2022-10-29T16:18:29.564Z,21.29
2022-10-29T16:20:57.855Z,21.27
2022-10-29T16:23:25.006Z,21.52
2022-10-29T16:25:52.111Z,21.56
2022-10-29T16:28:19.531Z,21.72
2022-10-29T16:30:47.814Z,21.82
2022-10-29T16:33:14.927Z,22.06
2022-10-29T16:35:42.327Z,22.17
2022-10-29T16:38:10.222Z,22.01
2022-10-29T16:40:37.326Z,21.82
2022-10-29T16:43:04.974Z,21.98
2022-10-29T16:45:32.435Z,21.62
2022-10-29T16:47:59.935Z,21.91
2022-10-29T16:50:32.672Z,21.82
2022-10-29T16:53:01.041Z,21.95
2022-10-29T16:55:28.634Z,21.81
2022-10-29T16:57:56.316Z,21.70
2022-10-29T17:00:25.874Z,21.58
2022-10-29T17:02:53.450Z,22.11
2022-10-29T17:05:20.949Z,22.07
2022-10-29T17:07:48.140Z,21.83
2022-10-29T17:10:15.516Z,22.05
2022-10-29T17:12:42.667Z,22.13
2022-10-29T17:15:09.994Z,21.61
2022-10-29T17:17:39.903Z,22.13
2022-10-29T17:20:09.822Z,22.18
2022-10-29T17:22:37.098Z,22.11
2022-10-29T17:25:04.953Z,21.95
2022-10-29T17:27:32.364Z,21.85
2022-10-29T17:29:59.632Z,22.03
2022-10-29T17:32:32.508Z,21.93
2022-10-29T17:35:00.255Z,22.23
2022-10-29T17:37:28.081Z,21.90
2022-10-29T17:39:55.270Z,21.76
2022-10-29T17:42:22.535Z,21.93
2022-10-29T17:44:50.787Z,21.94
2022-10-29T17:47:18.452Z,21.70
2022-10-29T17:49:45.700Z,21.66
2022-10-29T17:52:13.241Z,21.49
2022-10-29T17:54:40.928Z,21.40
2022-10-29T17:57:08.297Z,21.66
2022-10-29T17:59:35.866Z,21.80
2022-10-29T18:02:03.665Z,21.99
2022-10-29T18:04:31.757Z,22.08
2022-10-29T18:06:58.948Z,21.70
2022-10-29T18:09:26.391Z,22.21
2022-10-29T18:11:53.860Z,22.10
2022-10-29T18:14:21.338Z,22.14
2022-10-29T18:16:48.532Z,21.84
2022-10-29T18:19:15.986Z,22.02
2022-10-29T18:21:43.465Z,21.92
2022-10-29T18:24:10.761Z,21.66
2022-10-29T18:26:38.177Z,21.87
2022-10-29T18:29:07.626Z,22.07
2022-10-29T18:31:38.080Z,21.91
2022-10-29T18:34:07.146Z,22.06
2022-10-29T18:36:35.643Z,22.24
2022-10-29T18:39:04.286Z,21.86
2022-10-29T18:41:31.821Z,22.10
2022-10-29T18:43:59.249Z,22.19
2022-10-29T18:46:26.537Z,22.17
2022-10-29T18:48:54.326Z,21.83
2022-10-29T18:51:25.643Z,21.94
2022-10-29T18:53:53.367Z,22.19
2022-10-29T18:56:21.840Z,22.01
2022-10-29T18:58:49.117Z,22.02
2022-10-29T19:01:17.488Z,22.19
2022-10-29T19:03:48.689Z,22.18
2022-10-29T19:06:15.963Z,22.37
2022-10-29T19:08:43.369Z,22.24
2022-10-29T19:11:14.714Z,22.29
2022-10-29T19:13:42.247Z,22.11
2022-10-29T19:16:10.507Z,21.99
2022-10-29T19:18:38.341Z,22.05
2022-10-29T19:21:06.696Z,22.15
2022-10-29T19:23:34.248Z,22.24
2022-10-29T19:26:09.173Z,22.24
2022-10-29T19:28:36.749Z,22.11
2022-10-29T19:31:04.973Z,22.25
2022-10-29T19:33:32.252Z,22.21
2022-10-29T19:35:59.397Z,22.15
2022-10-29T19:38:26.846Z,22.16
2022-10-29T19:40:56.061Z,22.17
2022-10-29T19:43:23.703Z,22.04
2022-10-29T19:45:51.429Z,21.41
2022-10-29T19:48:19.084Z,21.59
2022-10-29T19:50:46.492Z,21.59
2022-10-29T19:53:14.050Z,21.71
2022-10-29T19:55:41.756Z,21.57
2022-10-29T19:58:09.889Z,21.75
2022-10-29T20:00:37.469Z,21.72
2022-10-29T20:03:04.883Z,21.18
2022-10-29T20:08:04.929Z,21.82
2022-10-29T20:10:32.152Z,21.67
2022-10-29T20:12:59.919Z,21.18
2022-10-29T20:15:27.932Z,21.60
2022-10-29T20:17:57.241Z,21.51
2022-10-29T20:20:25.439Z,21.89
2022-10-29T20:22:54.397Z,22.13
2022-10-29T20:25:23.946Z,21.95
2022-10-29T20:27:51.590Z,21.90
2022-10-29T20:30:20.791Z,21.98
2022-10-29T20:32:48.146Z,21.73
2022-10-29T20:35:15.630Z,21.93
2022-10-29T20:37:43.458Z,21.94
2022-10-29T20:40:11.074Z,22.00
2022-10-29T20:42:41.533Z,21.77
2022-10-29T20:45:09.392Z,21.85
2022-10-29T20:47:36.609Z,21.99
2022-10-29T20:50:03.873Z,22.14
2022-10-29T20:52:31.317Z,21.96
2022-10-29T20:54:58.453Z,22.23
2022-10-29T20:57:25.594Z,22.16
2022-10-29T20:59:53.216Z,21.97
2022-10-29T21:02:20.455Z,22.17
2022-10-29T21:04:47.688Z,22.23
2022-10-29T21:07:15.086Z,22.16
2022-10-29T21:09:42.204Z,21.97
2022-10-29T21:12:09.348Z,21.66
2022-10-29T21:14:36.795Z,21.38
2022-10-29T21:17:03.955Z,21.87
2022-10-29T21:19:32.217Z,22.21
2022-10-29T21:21:59.835Z,21.93
2022-10-29T21:24:26.977Z,22.07
2022-10-29T21:26:54.089Z,21.66
2022-10-29T21:29:21.495Z,21.70
2022-10-29T21:31:49.685Z,21.79
2022-10-29T21:34:16.819Z,21.36
2022-10-29T21:36:44.209Z,21.15
2022-10-29T21:39:11.333Z,21.58
2022-10-29T21:41:38.474Z,21.78
2022-10-29T21:44:05.890Z,21.90
2022-10-29T21:46:33.094Z,22.07
2022-10-29T21:49:00.222Z,21.64
2022-10-29T21:51:27.626Z,21.87
2022-10-29T21:53:54.760Z,21.52
2022-10-29T21:56:21.954Z,21.47
2022-10-29T21:58:52.301Z,21.71
2022-10-29T22:01:19.482Z,21.72
2022-10-29T22:03:47.508Z,21.61
2022-10-29T22:06:15.621Z,21.38
2022-10-29T22:08:42.764Z,21.94
2022-10-29T22:11:10.589Z,21.82
2022-10-29T22:13:37.723Z,21.50
2022-10-29T22:16:05.099Z,21.91
2022-10-29T22:18:32.718Z,20.87
2022-10-29T22:21:11.074Z,21.50
2022-10-29T22:23:42.093Z,21.67
2022-10-29T22:26:09.347Z,21.82
2022-10-29T22:28:39.814Z,21.83
2022-10-29T22:31:07.231Z,21.92
2022-10-29T22:33:34.384Z,21.63
2022-10-29T22:36:05.482Z,21.40
2022-10-29T22:38:32.896Z,21.26
2022-10-29T22:41:03.538Z,21.26
2022-10-29T22:43:30.686Z,21.19
2022-10-29T22:45:58.090Z,20.36
2022-10-29T22:48:25.231Z,20.68
2022-10-29T22:51:02.480Z,20.18
2022-10-29T22:53:30.084Z,20.05
2022-10-29T22:55:57.212Z,20.85
2022-10-29T22:58:24.352Z,20.23
2022-10-29T23:01:01.551Z,20.39
2022-10-29T23:03:28.745Z,20.11
2022-10-29T23:05:57.388Z,20.50
2022-10-29T23:08:24.712Z,20.37
2022-10-29T23:10:51.864Z,20.70
2022-10-29T23:13:19.259Z,20.79
2022-10-29T23:15:47.542Z,21.00
2022-10-29T23:18:14.678Z,20.84
2022-10-29T23:20:42.213Z,21.11
2022-10-29T23:23:09.401Z,21.08
2022-10-29T23:25:36.557Z,21.47
2022-10-29T23:28:03.973Z,20.90
2022-10-29T23:30:31.095Z,21.36
2022-10-29T23:32:58.640Z,21.29
2022-10-29T23:35:26.281Z,21.38
2022-10-29T23:37:53.398Z,21.53
2022-10-29T23:40:20.534Z,21.76
2022-10-29T23:42:47.962Z,21.78
2022-10-29T23:45:16.965Z,21.45
2022-10-29T23:47:44.130Z,21.52
2022-10-29T23:50:11.519Z,21.87
2022-10-29T23:52:38.655Z,21.69
2022-10-29T23:55:06.024Z,21.93
2022-10-29T23:57:33.682Z,21.79
